• Join FlightAware (Why Join?)
  • Login
  • US Flag 
06:43PM EDT


 

Airport Tracker/Info


-or-


 

Live Flight TrackerFlight Track Log ✈ RPA3392 ✈ 06-May-2013 ✈ KDCA - KALB

Flight Track Log - Related Links

Times and Time Zones

All times are in EDT time to prevent confusion due to time zone crossing. See the RPA3392 flight status page for this flight to view local times or setup timezone preferences in your user account.

Time Position Orientation Groundspeed Altitude Reporting Facility
EDT Latitude Longitude Course Direction KTS MPH feet Rate Location/Type
10:53PM 38.8667 -77.0500 83° East 159 183 1,100  Level Potomac TRACON
10:55PM 38.9864 -77.1806 320° Northwest 252 290 5,900 2,580 Climbing Washington Center
10:56PM 39.0206 -76.5549 67° East  Level FlightAware Approximate
10:56PM 39.0492 -77.1472 22° Northeast 209 241 9,400  Level Washington Center
10:57PM 39.0665 -76.4338 63° Northeast  Level FlightAware Approximate
10:57PM 39.0589 -77.0431 83° East 185 213 11,900  Level Washington Center
10:58PM 39.1167 -76.3155 90° East  Level FlightAware Approximate
10:58PM 39.0728 -76.9311 81° East 243 280 14,700  Level Washington Center
10:59PM 39.1519 -76.1975 83° East  Level FlightAware Approximate
10:59PM 39.0864 -76.8083 82° East 299 344 17,300  Level Washington Center
11:00PM 39.1003 -76.6856 82° East 327 376 19,400 2,220 Climbing Washington Center
11:01PM 39.1511 -76.5739 60° Northeast 347 399 21,800 2,220 Climbing Washington Center
11:02PM 39.2083 -76.4622 56° Northeast 353 406 24,000 1,920 Climbing Washington Center
11:03PM 39.2694 -76.3475 55° Northeast 375 432 25,700 1,620 Climbing Washington Center
11:04PM 39.3181 -76.2542 56° Northeast 385 443 27,300 1,620 Climbing Washington Center
11:05PM 39.3958 -76.1125 55° Northeast 398 458 29,000 840 Climbing Washington Center
11:06PM 39.4544 -75.9947 57° Northeast 398 458 29,000  Level Washington Center
11:07PM 39.5153 -75.8767 56° Northeast 393 452 29,000  Level Washington Center
11:08PM 39.5758 -75.7558 57° Northeast 393 452 29,000  Level Washington Center
11:09PM 39.6364 -75.6428 55° Northeast 393 452 29,000  Level Washington Center
11:10PM 39.6947 -75.5242 57° Northeast 393 452 29,000  Level Washington Center
11:11PM 39.7058 -75.5039 55° Northeast 391 450 29,000  Level New York Center
11:12PM 39.7669 -75.3839 56° Northeast 391 450 29,000  Level New York Center
11:13PM 39.8258 -75.2606 58° Northeast 396 456 29,000  Level New York Center
11:14PM 39.8892 -75.1294 58° Northeast 396 456 29,000  Level New York Center
11:15PM 39.9497 -75.0086 57° Northeast 396 456 29,000  Level New York Center
11:16PM 40.0125 -74.8878 56° Northeast 402 463 29,000  Level New York Center
11:17PM 40.0708 -74.7664 58° Northeast 397 457 29,000  Level New York Center
11:18PM 40.1372 -74.6561 52° Northeast 391 450 29,000  Level New York Center
11:19PM 40.2367 -74.6100 19° North 375 432 29,000  Level New York Center
11:20PM 40.3400 -74.5722 16° North 364 419 29,000  Level New York Center
11:21PM 40.4453 -74.5400 13° North 375 432 29,000  Level New York Center
11:22PM 40.6103 -74.4878 14° North 399 459 29,000  Level Boston Center
11:23PM 40.7361 -74.4478 14° North 394 453 29,000  Level Boston Center
11:24PM 40.8408 -74.4153 13° North 389 448 29,000  Level Boston Center
11:25PM 40.9247 -74.3878 14° North 389 448 29,000  Level Boston Center
11:26PM 41.0442 -74.3556 11° North 389 448 29,000 -300 Level Boston Center
11:27PM 41.1489 -74.3228 13° North 389 448 28,500 -1,380 Descending Boston Center
11:28PM 41.2642 -74.2847 14° North 389 448 26,300 -1,260 Descending Boston Center
11:29PM 41.3708 -74.2492 14° North 384 442 26,000 -180 Descending Boston Center
11:30PM 41.4756 -74.2161 13° North 384 442 26,000 -660 Level Boston Center
11:31PM 41.5761 -74.1856 13° North 394 453 24,700 -1,980 Descending Boston Center
11:32PM 41.6789 -74.1550 13° North 394 453 22,100 -2,580 Descending Boston Center
11:33PM 41.7814 -74.1189 15° North 381 438 19,600 -2,340 Descending Boston Center
11:34PM 41.8736 -74.0906 13° North 355 409 17,500 -2,400 Descending Boston Center
11:35PM 41.9197 -74.0750 14° North 349 402 16,200 -2,520 Descending Boston Center
11:35PM 41.9700 -74.0597 13° North 343 395 15,200 -2,100 Descending Boston Center
11:36PM 42.0600 -74.0311 13° North 334 384 12,900 -2,100 Descending Boston Center
11:37PM 42.1519 -74.0000 14° North 326 375 11,000 -1,140 Descending Boston Center
11:38PM 42.2317 -73.9822 North 323 372 10,800 -900 Descending Boston Center
11:39PM 42.3150 -73.9703 North 297 342 9,300 -1,680 Descending Boston Center
11:40PM 42.3964 -73.9611 North 290 334 7,500 -1,680 Descending Boston Center
11:41PM 42.4736 -73.9517 North 278 320 6,000 -1,740 Descending Boston Center
11:42PM 42.5531 -73.9394 North 266 306 4,100 -1,020 Descending Boston Center
11:43PM 42.6261 -73.9272 North 261 300 4,000 -360 Descending Boston Center
11:44PM 42.6908 -73.9175 North 229 264 3,400 -600 Descending Boston Center